Wednesday, June 20, 2018, 6:24 PM EDT
Back to Local

KUNV, State College, University Park Airport

Location: State College, PA, United States Lat: 40.85
Local Time: 6:24 PM EDT (22:24 GMT) Lon: -77.85
Time Zone: US/Eastern Elev: 1240 ft

Show me the last for .
Show Decoded

2018-06-20 17:53 METAR KUNV 202153Z 36005KT 5SM -RA BKN027 BKN034 OVC048 21/19 A2982 RMK LTG DSNT
                 SW =
2018-06-20 17:33 METAR KUNV 202133Z 00000KT 10SM VCSH BKN025 OVC031 22/18 A2982 RMK LTG DSNT SW
                 VIS NE 1 =
2018-06-20 16:53 METAR KUNV 202053Z 00000KT 10SM SCT035 SCT050 BKN090 23/18 A2982 RMK LTG DSNT SW
                 =
2018-06-20 15:53 METAR KUNV 201953Z 00000KT 10SM SCT030 BKN070 23/17 A2983 RMK LTG DSNT SW =
2018-06-20 14:53 METAR KUNV 201853Z 00000KT 10SM BKN048 BKN055 23/16 A2986 RMK LTG DSNT SW =
2018-06-20 13:53 METAR KUNV 201753Z 18005KT 10SM OVC055 22/15 A2988 RMK LTG DSNT SW =
2018-06-20 12:53 METAR KUNV 201653Z 22007KT 10SM OVC070 22/14 A2990 =
2018-06-20 11:53 METAR KUNV 201553Z 00000KT 10SM BKN070 22/14 A2991 =
2018-06-20 10:53 METAR KUNV 201453Z 00000KT 10SM BKN070 BKN085 OVC095 19/13 A2992 =
2018-06-20 09:53 METAR KUNV 201353Z 00000KT 10SM OVC075 18/14 A2994 =
2018-06-20 08:53 METAR KUNV 201253Z 00000KT 10SM OVC075 17/14 A2995 =
2018-06-20 07:53 METAR KUNV 201153Z 00000KT 10SM SCT045 BKN120 16/14 A2995 =
2018-06-20 06:53 METAR KUNV 201053Z 00000KT 10SM SCT040 16/14 A2995 =
2018-06-20 05:53 METAR KUNV 200953Z 00000KT 10SM SCT040 16/14 A2994 =
2018-06-20 05:35 METAR KUNV 200935Z AUTO 10SM 16/14 A2994 RMK AO2 T01570143 =
2018-06-20 05:15 METAR KUNV 200915Z AUTO 02004KT 10SM 16/15 A2994 RMK AO2 T01610145 =
2018-06-20 04:55 METAR KUNV 200855Z AUTO 00000KT 10SM 16/14 A2994 RMK AO2 T01610141 =
2018-06-20 04:35 METAR KUNV 200835Z AUTO 06003KT 10SM 16/14 A2994 RMK AO2 T01610140 =
2018-06-20 04:15 METAR KUNV 200815Z AUTO 10SM 16/14 A2994 RMK AO2 T01580140 =
2018-06-20 03:55 METAR KUNV 200755Z AUTO 00000KT 10SM 16/14 A2995 RMK AO2 T01580141 =
2018-06-20 03:35 METAR KUNV 200735Z AUTO 00000KT 10SM 17/14 A2994 RMK AO2 T01660140 =
2018-06-20 03:15 METAR KUNV 200715Z AUTO 00000KT 10SM CLR 17/15 A2994 RMK AO2 T01670145 =
2018-06-20 02:55 METAR KUNV 200655Z AUTO 00000KT 10SM CLR 17/14 A2994 RMK AO2 T01720141 =
2018-06-20 02:35 METAR KUNV 200635Z AUTO 04003KT 10SM CLR 18/14 A2994 RMK AO2 T01750142 =
2018-06-20 02:15 METAR KUNV 200615Z AUTO 00000KT 10SM CLR 18/14 A2994 RMK AO2 T01750141 =
2018-06-20 01:55 METAR KUNV 200555Z AUTO 10SM SCT065 SCT075 18/14 A2995 RMK AO2 T01760140 10236
                 20169 =
2018-06-20 01:35 METAR KUNV 200535Z AUTO 00000KT 10SM CLR 18/15 A2994 RMK AO2 T01770145 =
2018-06-20 01:15 METAR KUNV 200515Z AUTO 36003KT 10SM CLR 19/14 A2995 RMK AO2 T01850142 =
2018-06-20 00:55 METAR KUNV 200455Z AUTO 04003KT 10SM SCT065 SCT085 19/14 A2995 RMK AO2 T01860141
                 =
2018-06-20 00:35 METAR KUNV 200435Z AUTO 00000KT 10SM CLR 19/14 A2995 RMK AO2 T01870143 =
2018-06-20 00:15 METAR KUNV 200415Z AUTO 03003KT 10SM CLR 19/14 A2995 RMK AO2 T01930142 =
2018-06-19 23:55 METAR KUNV 200355Z AUTO 02003KT 10SM CLR 20/15 A2995 RMK AO2 T01950153 402730195
                 =
2018-06-19 23:35 METAR KUNV 200335Z AUTO 36003KT 10SM CLR 20/15 A2994 RMK AO2 T01990147 =
2018-06-19 23:15 METAR KUNV 200315Z AUTO 10SM SCT120 21/14 A2994 RMK AO2 T02050136 =
2018-06-19 22:55 METAR KUNV 200255Z AUTO 00000KT 10SM SCT120 21/13 A2995 RMK AO2 T02100126 =
2018-06-19 22:35 METAR KUNV 200235Z AUTO 00000KT 10SM CLR 21/14 A2995 RMK AO2 T02050136 =
2018-06-19 22:15 METAR KUNV 200215Z AUTO 10SM CLR 20/14 A2995 RMK AO2 T02010137 =
2018-06-19 21:53 METAR KUNV 200153Z 07003KT 10SM SKC 21/13 A2995 =
2018-06-19 20:53 METAR KUNV 200053Z 07003KT 10SM SKC 22/14 A2994 =
2018-06-19 19:53 METAR KUNV 192353Z 07003KT 10SM SKC 23/15 A2992 =
2018-06-19 18:53 METAR KUNV 192253Z 04005KT 10SM SCT070 26/14 A2992 =

Support USWX by starting your Amazon purchase here.